createdAt,value
2023-05-03T00:01:25.114Z,1.80
2023-05-03T00:03:52.865Z,1.20
2023-05-03T00:06:19.845Z,1.93
2023-05-03T00:08:46.975Z,1.60
2023-05-03T00:11:14.097Z,1.73
2023-05-03T00:13:41.115Z,1.43
2023-05-03T00:16:07.813Z,1.93
2023-05-03T00:18:34.951Z,1.30
2023-05-03T00:21:02.100Z,1.47
2023-05-03T00:23:29.302Z,1.60
2023-05-03T00:25:57.776Z,1.30
2023-05-03T00:28:25.502Z,1.53
2023-05-03T00:30:53.003Z,1.70
2023-05-03T00:33:20.251Z,1.60
2023-05-03T00:35:47.339Z,2.00
2023-05-03T00:38:15.374Z,1.47
2023-05-03T00:40:43.005Z,1.77
2023-05-03T00:43:12.505Z,1.83
2023-05-03T00:45:39.643Z,1.70
2023-05-03T00:48:07.044Z,1.57
2023-05-03T00:50:35.595Z,1.33
2023-05-03T00:53:03.071Z,1.57
2023-05-03T00:55:33.105Z,1.40
2023-05-03T00:58:00.201Z,1.20
2023-05-03T01:00:27.461Z,1.40
2023-05-03T01:02:54.765Z,1.57
2023-05-03T01:05:22.772Z,1.27
2023-05-03T01:08:10.884Z,1.67
2023-05-03T01:10:37.536Z,1.57
2023-05-03T01:13:04.635Z,1.80
2023-05-03T01:15:46.552Z,1.30
2023-05-03T01:18:23.673Z,1.73
2023-05-03T01:20:51.661Z,1.30
2023-05-03T01:23:33.462Z,1.67
2023-05-03T01:26:01.000Z,1.60
2023-05-03T01:28:28.131Z,1.93
2023-05-03T01:30:55.933Z,1.80
2023-05-03T01:33:33.474Z,1.67
2023-05-03T01:36:10.710Z,1.40
2023-05-03T01:38:37.776Z,1.40
2023-05-03T01:41:12.692Z,1.30
2023-05-03T01:43:40.686Z,1.57
2023-05-03T01:46:07.978Z,1.20
2023-05-03T01:48:34.809Z,1.70
2023-05-03T01:51:03.362Z,1.30
2023-05-03T01:53:30.415Z,1.57
2023-05-03T01:55:57.465Z,1.70
2023-05-03T01:58:24.508Z,1.60
2023-05-03T02:00:51.598Z,1.40
2023-05-03T02:03:19.090Z,1.60
2023-05-03T02:05:46.491Z,1.70
2023-05-03T02:08:13.587Z,1.60
2023-05-03T02:10:40.631Z,1.50
2023-05-03T02:13:07.681Z,1.43
2023-05-03T02:15:34.748Z,1.43
2023-05-03T02:18:03.089Z,1.80
2023-05-03T02:20:35.286Z,1.50
2023-05-03T02:23:02.346Z,1.83
2023-05-03T02:25:29.594Z,1.40
2023-05-03T02:27:56.606Z,1.37
2023-05-03T02:30:23.964Z,1.20
2023-05-03T02:32:51.011Z,1.57
2023-05-03T02:35:19.221Z,1.30
2023-05-03T02:37:46.319Z,1.30
2023-05-03T02:40:13.074Z,1.33
2023-05-03T02:42:42.096Z,1.13
2023-05-03T02:45:09.448Z,1.67
2023-05-03T02:47:36.569Z,1.33
2023-05-03T02:50:03.931Z,1.47
2023-05-03T02:52:34.089Z,1.20
2023-05-03T02:55:01.325Z,1.33
2023-05-03T02:57:28.559Z,1.57
2023-05-03T02:59:57.243Z,1.30
2023-05-03T03:02:24.074Z,1.80
2023-05-03T03:04:51.200Z,1.10
2023-05-03T03:07:18.259Z,1.80
2023-05-03T03:09:45.549Z,1.50
2023-05-03T03:12:12.564Z,1.20
2023-05-03T03:14:39.653Z,1.40
2023-05-03T03:17:09.236Z,1.23
2023-05-03T03:19:36.333Z,1.50
2023-05-03T03:22:03.413Z,1.27
2023-05-03T03:24:31.408Z,1.20
2023-05-03T03:26:58.096Z,1.73
2023-05-03T03:29:26.262Z,1.73
2023-05-03T03:31:53.184Z,1.20
2023-05-03T03:34:20.737Z,1.50
2023-05-03T03:36:47.866Z,1.10
2023-05-03T03:39:15.680Z,1.30
2023-05-03T03:41:43.819Z,1.20
2023-05-03T03:44:11.312Z,1.27
2023-05-03T03:46:38.298Z,1.63
2023-05-03T03:49:05.353Z,1.20
2023-05-03T03:51:32.431Z,1.10
2023-05-03T03:54:00.188Z,1.07
2023-05-03T03:56:31.488Z,1.40
2023-05-03T03:58:58.546Z,1.40
2023-05-03T04:01:26.258Z,1.30
2023-05-03T04:03:53.937Z,1.67
2023-05-03T04:06:21.091Z,1.47
2023-05-03T04:08:49.157Z,1.53
2023-05-03T04:11:17.413Z,1.47
2023-05-03T04:13:51.894Z,1.40
2023-05-03T04:16:19.077Z,1.23
2023-05-03T04:18:46.479Z,1.40
2023-05-03T04:21:14.198Z,1.67
2023-05-03T04:23:42.502Z,1.30
2023-05-03T04:26:20.330Z,1.20
2023-05-03T04:28:55.520Z,1.50
2023-05-03T04:31:23.625Z,1.53
2023-05-03T04:33:53.751Z,1.33
2023-05-03T04:36:25.709Z,1.60
2023-05-03T04:38:53.753Z,1.20
2023-05-03T04:41:20.901Z,1.50
2023-05-03T04:43:48.446Z,1.50
2023-05-03T04:46:16.782Z,1.40
2023-05-03T04:48:45.682Z,1.17
2023-05-03T04:51:12.289Z,1.20
2023-05-03T04:53:40.611Z,1.70
2023-05-03T04:56:12.894Z,2.13
2023-05-03T04:58:41.325Z,1.70
2023-05-03T05:01:08.683Z,1.37
2023-05-03T05:03:35.554Z,1.30
2023-05-03T05:06:09.754Z,1.43
2023-05-03T05:08:37.637Z,1.23
2023-05-03T05:11:08.017Z,1.60
2023-05-03T05:13:35.129Z,1.53
2023-05-03T05:16:02.243Z,1.73
2023-05-03T05:18:29.020Z,1.80
2023-05-03T05:20:57.006Z,2.10
2023-05-03T05:23:24.418Z,2.20
2023-05-03T05:25:53.842Z,2.00
2023-05-03T05:28:20.952Z,1.70
2023-05-03T05:30:48.026Z,2.20
2023-05-03T05:33:16.675Z,2.33
2023-05-03T05:35:46.831Z,1.97
2023-05-03T05:38:13.973Z,2.13
2023-05-03T05:40:40.785Z,2.10
2023-05-03T05:43:07.985Z,2.33
2023-05-03T05:45:37.205Z,3.00
2023-05-03T05:48:06.119Z,3.47
2023-05-03T05:50:34.144Z,2.47
2023-05-03T05:53:06.399Z,2.97
2023-05-03T05:55:37.176Z,2.63
2023-05-03T05:58:04.941Z,3.73
2023-05-03T06:00:40.947Z,2.77
2023-05-03T06:03:08.123Z,3.50
2023-05-03T06:05:35.472Z,2.93
2023-05-03T06:08:02.658Z,3.13
2023-05-03T06:10:29.282Z,2.90
2023-05-03T06:12:57.836Z,2.90
2023-05-03T06:15:26.909Z,2.60
2023-05-03T06:17:54.296Z,2.40
2023-05-03T06:20:21.382Z,2.87
2023-05-03T06:22:49.928Z,2.87
2023-05-03T06:25:17.944Z,2.50
2023-05-03T06:27:48.479Z,2.27
2023-05-03T06:30:16.909Z,2.13
2023-05-03T06:32:47.329Z,2.47
2023-05-03T06:35:15.543Z,2.80
2023-05-03T06:37:43.655Z,2.50
2023-05-03T06:40:11.940Z,2.37
2023-05-03T06:42:39.021Z,2.73
2023-05-03T06:45:09.907Z,2.27
2023-05-03T06:47:39.994Z,2.10
2023-05-03T06:50:07.388Z,2.10
2023-05-03T06:52:34.517Z,2.00
2023-05-03T06:55:01.653Z,2.37
2023-05-03T06:57:28.913Z,2.20
2023-05-03T06:59:55.829Z,1.90
2023-05-03T07:02:23.127Z,1.57
2023-05-03T07:04:49.834Z,2.00
2023-05-03T07:07:17.048Z,1.83
2023-05-03T07:09:44.137Z,1.77
2023-05-03T07:12:11.472Z,1.30
2023-05-03T07:14:40.072Z,1.20
2023-05-03T07:17:07.383Z,1.17
2023-05-03T07:19:34.521Z,1.00
2023-05-03T07:22:03.304Z,1.53
2023-05-03T07:24:30.394Z,1.30
2023-05-03T07:26:58.091Z,1.23
2023-05-03T07:29:26.136Z,1.10
2023-05-03T07:31:53.722Z,1.63
2023-05-03T07:34:21.285Z,1.27
2023-05-03T07:36:48.324Z,1.20
2023-05-03T07:39:15.746Z,0.83
2023-05-03T07:41:42.915Z,1.70
2023-05-03T07:44:09.952Z,0.80
2023-05-03T07:46:36.671Z,1.27
2023-05-03T07:49:05.324Z,1.07
2023-05-03T07:51:36.532Z,1.00
2023-05-03T07:54:04.145Z,1.20
2023-05-03T07:56:31.346Z,1.00
2023-05-03T07:59:08.525Z,1.30
2023-05-03T08:01:37.355Z,1.40
2023-05-03T08:04:04.733Z,1.37
2023-05-03T08:06:32.321Z,1.13
2023-05-03T08:08:59.101Z,0.93
2023-05-03T08:11:28.637Z,1.43
2023-05-03T08:13:55.958Z,1.33
2023-05-03T08:16:23.123Z,1.53
2023-05-03T08:18:50.426Z,1.30
2023-05-03T08:21:17.622Z,0.97
2023-05-03T08:23:44.956Z,1.30
2023-05-03T08:26:14.133Z,0.97
2023-05-03T08:28:41.358Z,1.50
2023-05-03T08:31:08.860Z,1.03
2023-05-03T08:33:36.115Z,1.20
2023-05-03T08:36:03.329Z,1.10
2023-05-03T08:38:30.096Z,1.37
2023-05-03T08:40:59.514Z,1.30
2023-05-03T08:43:28.626Z,1.13
2023-05-03T08:45:55.816Z,1.60
2023-05-03T08:48:23.286Z,0.93
2023-05-03T08:50:52.674Z,1.30
2023-05-03T08:53:19.711Z,1.30
2023-05-03T08:55:46.761Z,1.10
2023-05-03T08:58:13.696Z,1.03
2023-05-03T09:00:44.640Z,1.23
2023-05-03T09:03:12.186Z,1.37
2023-05-03T09:05:40.494Z,1.20
2023-05-03T09:08:13.488Z,1.33
2023-05-03T09:10:42.042Z,1.20
2023-05-03T09:13:09.787Z,1.20
2023-05-03T09:15:36.989Z,1.60
2023-05-03T09:18:08.418Z,1.30
2023-05-03T09:20:36.793Z,1.33
2023-05-03T09:23:04.098Z,1.20
2023-05-03T09:25:48.168Z,1.43
2023-05-03T09:28:16.789Z,1.20
2023-05-03T09:30:44.833Z,1.40
2023-05-03T09:33:12.036Z,1.20
2023-05-03T09:35:55.625Z,1.37
2023-05-03T09:38:33.739Z,1.20
2023-05-03T09:41:06.005Z,1.50
2023-05-03T09:43:33.737Z,1.27
2023-05-03T09:46:11.870Z,1.40
2023-05-03T09:48:39.769Z,1.80
2023-05-03T09:51:07.764Z,1.43
2023-05-03T09:53:36.026Z,1.13
2023-05-03T09:56:04.073Z,1.20
2023-05-03T09:58:31.174Z,1.20
2023-05-03T10:00:58.844Z,1.30
2023-05-03T10:03:34.308Z,1.50
2023-05-03T10:06:05.036Z,1.97
2023-05-03T10:08:36.586Z,1.50
2023-05-03T10:11:07.676Z,1.80
2023-05-03T10:13:34.990Z,1.53
2023-05-03T10:16:06.770Z,1.43
2023-05-03T10:18:37.512Z,1.60
2023-05-03T10:21:13.852Z,1.37
2023-05-03T10:24:16.196Z,1.37
2023-05-03T10:26:46.302Z,1.40
2023-05-03T10:29:34.960Z,1.30
2023-05-03T10:32:03.732Z,1.23
2023-05-03T10:34:35.368Z,1.27
2023-05-03T10:37:07.390Z,1.53
2023-05-03T10:39:34.178Z,1.50
2023-05-03T10:42:08.604Z,1.67
2023-05-03T10:44:39.653Z,1.40
2023-05-03T10:47:23.658Z,2.13
2023-05-03T10:50:15.200Z,1.20
2023-05-03T10:52:42.345Z,1.23
2023-05-03T10:55:13.643Z,1.50
2023-05-03T10:57:42.660Z,1.93
2023-05-03T11:00:13.716Z,2.03
2023-05-03T11:03:02.331Z,2.60
2023-05-03T11:05:30.897Z,1.93
2023-05-03T11:08:15.017Z,1.87
2023-05-03T11:10:42.104Z,1.97
2023-05-03T11:13:08.822Z,2.00
2023-05-03T11:15:36.175Z,1.87
2023-05-03T11:18:03.502Z,1.77
2023-05-03T11:20:30.350Z,1.50
2023-05-03T11:22:57.199Z,1.73
2023-05-03T11:25:24.290Z,2.03
2023-05-03T11:27:50.869Z,2.00
2023-05-03T11:30:18.113Z,2.00
2023-05-03T11:32:45.324Z,1.50
2023-05-03T11:35:17.514Z,1.47
2023-05-03T11:37:44.581Z,1.30
2023-05-03T11:40:18.781Z,1.47
2023-05-03T11:42:56.503Z,1.87
2023-05-03T11:45:25.228Z,1.70
2023-05-03T11:47:52.539Z,1.30
2023-05-03T11:50:26.482Z,1.50
2023-05-03T11:52:53.763Z,1.37
2023-05-03T11:55:21.796Z,1.50
2023-05-03T11:57:48.356Z,1.27
2023-05-03T12:00:19.132Z,1.67
2023-05-03T12:02:48.398Z,1.40
2023-05-03T12:05:16.882Z,1.30
2023-05-03T12:07:45.105Z,1.37
2023-05-03T12:10:23.056Z,1.90
2023-05-03T12:12:57.074Z,1.47
2023-05-03T12:15:36.893Z,2.30
2023-05-03T12:18:09.836Z,1.83
2023-05-03T12:23:10.310Z,2.10
2023-05-03T12:25:39.758Z,2.40
2023-05-03T12:28:19.674Z,1.70
2023-05-03T12:30:47.987Z,2.00
2023-05-03T12:33:16.561Z,1.93
2023-05-03T12:35:47.658Z,2.13
2023-05-03T12:38:16.760Z,2.43
2023-05-03T12:40:45.447Z,1.87
2023-05-03T12:43:12.920Z,2.03
2023-05-03T12:45:41.265Z,2.40
2023-05-03T12:48:09.180Z,2.40
2023-05-03T12:50:38.783Z,1.97
2023-05-03T12:53:09.335Z,1.93
2023-05-03T12:55:41.664Z,2.00
2023-05-03T13:00:53.370Z,1.90
2023-05-03T13:03:33.389Z,1.97
2023-05-03T13:06:02.561Z,1.30
2023-05-03T13:08:37.077Z,1.83
2023-05-03T13:11:04.465Z,1.87
2023-05-03T13:13:33.069Z,1.70
2023-05-03T13:16:00.231Z,1.40
2023-05-03T13:18:27.607Z,1.87
2023-05-03T13:20:54.220Z,1.70
2023-05-03T13:23:21.004Z,2.10
2023-05-03T13:25:48.031Z,1.70
2023-05-03T13:28:19.809Z,1.97
2023-05-03T13:30:46.953Z,1.90
2023-05-03T13:33:14.010Z,1.90
2023-05-03T13:35:41.100Z,1.67
2023-05-03T13:38:09.068Z,1.77
2023-05-03T13:40:36.264Z,1.80
2023-05-03T13:43:03.357Z,1.63
2023-05-03T13:45:30.421Z,1.93
2023-05-03T13:48:11.791Z,1.87
2023-05-03T13:50:44.486Z,1.40
2023-05-03T13:53:11.518Z,1.50
2023-05-03T13:55:38.686Z,2.17
2023-05-03T13:58:05.753Z,1.90
2023-05-03T14:00:32.794Z,1.70
2023-05-03T14:02:59.421Z,1.70
2023-05-03T14:05:27.170Z,1.50
2023-05-03T14:07:54.251Z,1.40
2023-05-03T14:10:21.314Z,1.97
2023-05-03T14:12:48.490Z,1.43
2023-05-03T14:15:15.825Z,1.97
2023-05-03T14:17:43.624Z,1.70
2023-05-03T14:20:12.030Z,1.73
2023-05-03T14:22:39.137Z,1.87
2023-05-03T14:25:06.492Z,1.90
2023-05-03T14:27:33.665Z,2.27
2023-05-03T14:30:00.913Z,1.80
2023-05-03T14:32:28.000Z,1.80
2023-05-03T14:34:55.024Z,2.17
2023-05-03T14:37:22.706Z,2.20
2023-05-03T14:39:49.850Z,1.93
2023-05-03T14:42:16.895Z,1.70
2023-05-03T14:44:44.375Z,1.90
2023-05-03T14:47:11.270Z,1.77
2023-05-03T14:49:41.413Z,1.70
2023-05-03T14:52:08.878Z,1.83
2023-05-03T14:54:37.197Z,2.00
2023-05-03T14:57:04.781Z,1.50
2023-05-03T14:59:33.107Z,1.80
2023-05-03T15:02:00.746Z,1.73
2023-05-03T15:04:27.920Z,1.60
2023-05-03T15:06:55.179Z,1.93
2023-05-03T15:09:22.766Z,1.97
2023-05-03T15:11:49.925Z,1.70
2023-05-03T15:14:17.417Z,1.80
2023-05-03T15:16:44.594Z,1.53
2023-05-03T15:19:11.704Z,2.00
2023-05-03T15:21:49.339Z,2.00
2023-05-03T15:24:17.007Z,2.00
2023-05-03T15:26:43.900Z,2.00
2023-05-03T15:29:11.274Z,2.03
2023-05-03T15:31:38.407Z,1.60
2023-05-03T15:34:05.939Z,2.27
2023-05-03T15:36:33.690Z,1.97
2023-05-03T15:39:00.708Z,2.10
2023-05-03T15:41:27.918Z,1.90
2023-05-03T15:43:55.348Z,1.63
2023-05-03T15:46:22.549Z,1.93
2023-05-03T15:48:49.562Z,1.93
2023-05-03T15:51:16.588Z,2.03
2023-05-03T15:53:43.705Z,1.60
2023-05-03T15:56:10.321Z,1.67
2023-05-03T15:58:37.442Z,1.90
2023-05-03T16:01:05.121Z,1.97
2023-05-03T16:03:32.152Z,2.00
2023-05-03T16:05:58.930Z,2.00
2023-05-03T16:08:26.320Z,2.00
2023-05-03T16:10:53.380Z,1.77
2023-05-03T16:13:20.545Z,1.60
2023-05-03T16:15:48.224Z,1.87
2023-05-03T16:18:15.353Z,1.83
2023-05-03T16:20:42.414Z,1.90
2023-05-03T16:23:09.768Z,1.83
2023-05-03T16:25:36.791Z,1.30
2023-05-03T16:28:03.971Z,1.60
2023-05-03T16:30:31.018Z,1.60
2023-05-03T16:32:58.044Z,1.47
2023-05-03T16:35:25.126Z,1.60
2023-05-03T16:37:52.840Z,1.83
2023-05-03T16:40:19.582Z,1.30
2023-05-03T16:42:49.058Z,1.50
2023-05-03T16:45:16.874Z,1.30
2023-05-03T16:47:46.019Z,1.30
2023-05-03T16:50:13.240Z,1.40
2023-05-03T16:52:41.510Z,1.87
2023-05-03T16:55:09.376Z,1.37
2023-05-03T16:57:37.093Z,1.70
2023-05-03T17:00:09.292Z,1.90
2023-05-03T17:02:39.837Z,1.60
2023-05-03T17:05:12.619Z,1.50
2023-05-03T17:07:41.662Z,1.20
2023-05-03T17:10:09.035Z,1.70
2023-05-03T17:12:36.424Z,1.40
2023-05-03T17:15:03.671Z,1.63
2023-05-03T17:17:32.484Z,2.00
2023-05-03T17:19:59.745Z,1.90
2023-05-03T17:22:27.895Z,1.63
2023-05-03T17:24:57.161Z,1.87
2023-05-03T17:27:24.341Z,1.70
2023-05-03T17:29:51.744Z,1.80
2023-05-03T17:32:19.151Z,1.73
2023-05-03T17:34:46.261Z,1.53
2023-05-03T17:37:13.331Z,1.80
2023-05-03T17:39:40.225Z,1.60
2023-05-03T17:42:08.039Z,2.03
2023-05-03T17:44:35.083Z,1.50
2023-05-03T17:47:02.267Z,2.03
2023-05-03T17:49:30.503Z,1.60
2023-05-03T17:51:58.309Z,1.60
2023-05-03T17:54:25.652Z,1.57
2023-05-03T17:56:52.858Z,1.63
2023-05-03T17:59:19.917Z,1.30
2023-05-03T18:01:47.785Z,1.50
2023-05-03T18:04:15.103Z,2.17
2023-05-03T18:06:42.187Z,2.03
2023-05-03T18:09:09.204Z,1.53
2023-05-03T18:11:36.862Z,1.50
2023-05-03T18:14:03.978Z,1.70
2023-05-03T18:16:30.716Z,1.43
2023-05-03T18:18:58.054Z,1.37
2023-05-03T18:21:25.067Z,2.47
2023-05-03T18:23:52.147Z,1.30
2023-05-03T18:26:19.174Z,1.73
2023-05-03T18:28:46.478Z,1.73
2023-05-03T18:31:13.526Z,2.13
2023-05-03T18:33:40.726Z,2.33
2023-05-03T18:36:11.943Z,2.17
2023-05-03T18:38:39.566Z,2.20
2023-05-03T18:41:14.828Z,1.90
2023-05-03T18:43:45.069Z,2.30
2023-05-03T18:46:16.528Z,1.87
2023-05-03T18:48:43.196Z,2.17
2023-05-03T18:51:10.470Z,1.80
2023-05-03T18:53:37.585Z,2.20
2023-05-03T18:56:04.980Z,1.70
2023-05-03T18:58:32.444Z,2.27
2023-05-03T19:01:00.228Z,1.90
2023-05-03T19:03:30.960Z,1.70
2023-05-03T19:06:05.408Z,2.43
2023-05-03T19:08:32.438Z,2.30
2023-05-03T19:11:09.610Z,2.80
2023-05-03T19:13:36.728Z,3.27
2023-05-03T19:16:04.866Z,3.37
2023-05-03T19:18:32.107Z,2.40
2023-05-03T19:20:58.762Z,2.47
2023-05-03T19:23:25.887Z,2.83
2023-05-03T19:25:52.479Z,2.43
2023-05-03T19:28:19.517Z,2.30
2023-05-03T19:30:51.268Z,1.53
2023-05-03T19:33:19.076Z,1.93
2023-05-03T19:35:46.237Z,2.10
2023-05-03T19:38:13.935Z,2.23
2023-05-03T19:40:41.211Z,2.20
2023-05-03T19:43:08.295Z,1.80
2023-05-03T19:45:41.177Z,1.93
2023-05-03T19:48:10.203Z,1.63
2023-05-03T19:50:37.422Z,1.60
2023-05-03T19:53:04.487Z,1.87
2023-05-03T19:55:31.565Z,1.97
2023-05-03T19:57:58.677Z,1.73
2023-05-03T20:00:26.943Z,2.00
2023-05-03T20:02:54.425Z,1.77
2023-05-03T20:05:21.711Z,1.50
2023-05-03T20:07:49.074Z,1.80
2023-05-03T20:10:16.231Z,1.90
2023-05-03T20:12:43.392Z,1.60
2023-05-03T20:15:11.316Z,1.77
2023-05-03T20:17:38.622Z,1.80
2023-05-03T20:20:10.634Z,1.77
2023-05-03T20:22:37.806Z,2.30
2023-05-03T20:25:05.126Z,1.73
2023-05-03T20:27:32.194Z,1.80
2023-05-03T20:29:59.272Z,1.60
2023-05-03T20:32:26.321Z,1.70
2023-05-03T20:34:53.692Z,1.70
2023-05-03T20:37:20.768Z,1.87
2023-05-03T20:39:47.817Z,1.70
2023-05-03T20:42:14.934Z,1.60
2023-05-03T20:44:42.152Z,1.60
2023-05-03T20:47:09.244Z,1.37
2023-05-03T20:49:37.686Z,1.63
2023-05-03T20:52:04.528Z,1.30
2023-05-03T20:54:31.668Z,2.17
2023-05-03T20:56:58.725Z,1.47
2023-05-03T20:59:26.379Z,1.57
2023-05-03T21:01:53.453Z,1.40
2023-05-03T21:04:20.140Z,1.53
2023-05-03T21:06:47.224Z,1.70
2023-05-03T21:09:14.321Z,1.90
2023-05-03T21:11:42.384Z,1.50
2023-05-03T21:14:10.770Z,1.80
2023-05-03T21:16:38.007Z,1.90
2023-05-03T21:19:05.203Z,1.63
2023-05-03T21:21:33.003Z,1.63
2023-05-03T21:24:00.035Z,1.40
2023-05-03T21:26:27.087Z,1.40
2023-05-03T21:28:54.215Z,1.50
2023-05-03T21:31:20.920Z,1.90
2023-05-03T21:33:47.950Z,1.80
2023-05-03T21:36:14.976Z,1.70
2023-05-03T21:38:42.051Z,1.67
2023-05-03T21:41:09.201Z,1.90
2023-05-03T21:43:36.347Z,1.90
2023-05-03T21:46:07.614Z,1.87
2023-05-03T21:48:35.419Z,1.60
2023-05-03T21:51:03.426Z,1.63
2023-05-03T21:53:30.523Z,1.60
2023-05-03T21:55:57.559Z,1.73
2023-05-03T21:58:24.616Z,1.77
2023-05-03T22:00:51.188Z,1.67
2023-05-03T22:03:18.352Z,1.50
2023-05-03T22:05:48.584Z,1.87
2023-05-03T22:08:18.000Z,1.50
2023-05-03T22:10:45.554Z,2.43
2023-05-03T22:13:12.963Z,1.73
2023-05-03T22:15:40.197Z,1.60
2023-05-03T22:18:07.476Z,2.40
2023-05-03T22:20:34.635Z,1.87
2023-05-03T22:23:01.235Z,1.30
2023-05-03T22:25:30.039Z,1.50
2023-05-03T22:27:58.528Z,1.60
2023-05-03T22:30:25.569Z,1.57
2023-05-03T22:32:52.232Z,1.80
2023-05-03T22:35:19.272Z,2.10
2023-05-03T22:37:46.311Z,1.77
2023-05-03T22:40:13.395Z,1.87
2023-05-03T22:42:40.418Z,1.50
2023-05-03T22:45:07.662Z,2.27
2023-05-03T22:47:34.262Z,1.37
2023-05-03T22:50:01.684Z,2.00
2023-05-03T22:52:28.756Z,1.80
2023-05-03T22:54:56.845Z,1.93
2023-05-03T22:57:24.043Z,2.00
2023-05-03T22:59:51.067Z,1.77
2023-05-03T23:02:18.113Z,1.70
2023-05-03T23:04:45.233Z,2.10
2023-05-03T23:07:12.290Z,1.60
2023-05-03T23:09:39.021Z,2.20
2023-05-03T23:12:06.406Z,1.87
2023-05-03T23:14:33.469Z,1.70
2023-05-03T23:17:00.584Z,1.53
2023-05-03T23:19:28.011Z,1.97
2023-05-03T23:21:55.056Z,1.80
2023-05-03T23:24:22.102Z,2.00
2023-05-03T23:26:49.108Z,1.47
2023-05-03T23:29:16.546Z,1.90
2023-05-03T23:31:44.070Z,2.27
2023-05-03T23:34:11.507Z,1.70
2023-05-03T23:36:38.569Z,1.50
2023-05-03T23:39:05.687Z,1.60
2023-05-03T23:41:33.970Z,1.47
2023-05-03T23:44:01.142Z,1.70
2023-05-03T23:46:28.263Z,1.57
2023-05-03T23:48:55.351Z,1.37
2023-05-03T23:51:22.389Z,2.07
2023-05-03T23:53:49.381Z,1.30
2023-05-03T23:56:16.573Z,1.43
2023-05-03T23:58:43.706Z,1.67
